Valhermoso Springs, Alabama
Current Conditions -  °F | °C
As of 4:53 PM on Thursday 23 Oct 2014 (Local Time) from KHSV Reporting Station
Broken Clouds Broken Clouds  
Wind Chill: 69°   Ceiling: 25000
Heat Index: 69°   Visibility: 10mi
Dew Point: 37°   Wind: 6mph
Humidity: 31%   Direction: 340°NNW
Pressure: 30.07"   Gusts: NA
Location:  34.5°N, 86.69°W
Report Text: KHSV 232153Z 34005KT 10SM BKN250 21/03 A3007 RMK AO2 SLP181 T02060028
Loading
Personal Weather Stations






























Interactive Weather Map
Tropical Storm Tracking
New forecast layout! Learn more

10-Day Weather Forecast

Advertisements
Track Severe Weather on mobile